Time;durP1;ratioP1;P1;durP2;ratioP2;P2;SDS_P1;SDS_P2;PMS_P1;PMS_P2;Temp;Humidity;BMP_temperature;BMP_pressure;BME280_temperature;BME280_humidity;BME280_pressure;Samples;Min_cycle;Max_cycle;Signal;HPM_P1;HPM_P2
2022/09/18 00:01:32;;;;;;;6.00;4.47;;;10.50;99.90;;;;;;4978100;28;20894;-88
2022/09/18 00:04:02;;;;;;;7.10;4.18;;;10.40;99.90;;;;;;4977388;28;20412;-87
2022/09/18 00:06:33;;;;;;;6.32;4.80;;;10.40;99.90;;;;;;4972713;28;20453;-89
2022/09/18 00:09:04;;;;;;;6.77;5.53;;;10.30;99.90;;;;;;4972124;28;20411;-88
2022/09/18 00:11:38;;;;;;;7.40;5.10;;;10.30;99.90;;;;;;4967522;28;20471;-87
2022/09/18 00:14:08;;;;;;;6.50;5.18;;;10.40;99.90;;;;;;4966297;28;20403;-88
2022/09/18 00:16:36;;;;;;;6.40;4.38;;;10.40;99.90;;;;;;4952874;29;20749;-89
2022/09/18 00:19:05;;;;;;;7.80;5.85;;;10.40;99.90;;;;;;4952357;29;20404;-88
2022/09/18 00:21:34;;;;;;;6.20;5.07;;;10.40;99.90;;;;;;4952360;29;20408;-88
2022/09/18 00:24:04;;;;;;;6.40;4.80;;;10.40;99.90;;;;;;4952309;29;20761;-89
2022/09/18 00:26:32;;;;;;;6.65;4.20;;;10.40;99.90;;;;;;4936879;29;20412;-89
2022/09/18 00:29:00;;;;;;;5.65;4.65;;;10.30;99.90;;;;;;4952269;29;20415;-89
2022/09/18 00:31:31;;;;;;;6.07;5.07;;;10.30;99.90;;;;;;4952376;29;20408;-88
2022/09/18 00:34:01;;;;;;;7.03;4.40;;;10.30;99.90;;;;;;4953400;28;20419;-88
2022/09/18 00:36:29;;;;;;;5.80;4.13;;;10.30;99.90;;;;;;4955274;28;20471;-87
2022/09/18 00:38:58;;;;;;;6.38;4.57;;;10.30;99.90;;;;;;4957376;28;20396;-88
2022/09/18 00:41:32;;;;;;;4.80;4.00;;;10.40;99.90;;;;;;4955825;29;20411;-88
2022/09/18 00:44:27;;;;;;;5.50;4.37;;;10.30;99.90;;;;;;4955624;29;20895;-88
2022/09/18 00:47:01;;;;;;;5.00;4.30;;;10.40;99.90;;;;;;4957333;29;20946;-88
2022/09/18 00:49:30;;;;;;;5.25;4.57;;;10.40;99.90;;;;;;4955633;29;20910;-88
2022/09/18 00:51:59;;;;;;;5.18;3.85;;;10.40;99.90;;;;;;4956079;29;20484;-88
2022/09/18 00:54:36;;;;;;;4.67;3.40;;;10.40;99.90;;;;;;4955881;29;20517;-88
2022/09/18 00:57:12;;;;;;;5.53;4.00;;;10.30;99.90;;;;;;4955927;29;20459;-89
2022/09/18 00:59:44;;;;;;;5.20;3.70;;;10.40;99.90;;;;;;4955637;29;20396;-89
2022/09/18 01:02:11;;;;;;;6.90;4.20;;;10.40;99.90;;;;;;4955513;29;20404;-89
2022/09/18 01:04:39;;;;;;;5.03;3.53;;;10.50;99.90;;;;;;4955331;29;20499;-88
2022/09/18 01:07:28;;;;;;;3.70;3.38;;;10.40;99.90;;;;;;4956476;28;20400;-88
2022/09/18 01:10:10;;;;;;;5.05;3.75;;;10.40;99.90;;;;;;4957988;28;20412;-88
2022/09/18 01:12:59;;;;;;;5.13;3.87;;;10.40;99.90;;;;;;4971240;28;20412;-88
2022/09/18 01:16:14;;;;;;;5.38;3.25;;;10.40;99.90;;;;;;4955269;29;20436;-87
2022/09/18 01:18:57;;;;;;;5.05;3.65;;;10.40;99.90;;;;;;4936605;29;20412;-88
2022/09/18 01:21:46;;;;;;;7.43;4.15;;;10.40;99.90;;;;;;4964366;28;20416;-88
2022/09/18 01:24:27;;;;;;;5.07;3.70;;;10.40;99.90;;;;;;4955954;28;20423;-86
2022/09/18 01:26:57;;;;;;;5.95;3.72;;;10.40;99.90;;;;;;4954956;29;20411;-87
2022/09/18 01:29:59;;;;;;;6.25;4.05;;;10.40;99.90;;;;;;4938964;29;20400;-90
2022/09/18 01:32:44;;;;;;;6.28;3.95;;;10.40;99.90;;;;;;4954865;29;20436;-91
2022/09/18 01:35:20;;;;;;;4.78;3.67;;;10.40;99.90;;;;;;4957084;28;20835;-88
2022/09/18 01:38:22;;;;;;;5.60;4.20;;;10.40;99.90;;;;;;4970748;28;20899;-88
2022/09/18 01:40:55;;;;;;;5.93;3.67;;;10.40;99.90;;;;;;4954677;29;20586;-90
2022/09/18 01:43:26;;;;;;;5.63;3.80;;;10.40;99.90;;;;;;4954683;29;20416;-88
2022/09/18 01:45:58;;;;;;;5.32;4.45;;;10.40;99.90;;;;;;4954777;29;20439;-89
2022/09/18 01:48:35;;;;;;;5.33;3.77;;;10.40;99.90;;;;;;4954381;29;20400;-88
2022/09/18 01:51:19;;;;;;;7.88;5.28;;;10.40;99.90;;;;;;4954072;29;20966;-90
2022/09/18 01:53:54;;;;;;;4.60;3.60;;;10.50;99.90;;;;;;4954940;29;20415;-88
2022/09/18 01:56:32;;;;;;;4.95;4.45;;;10.40;99.90;;;;;;4954495;29;20424;-88
2022/09/18 01:59:05;;;;;;;5.53;4.88;;;10.50;99.90;;;;;;4954327;29;20400;-88
2022/09/18 02:01:45;;;;;;;6.13;5.18;;;10.50;99.90;;;;;;4939659;29;20495;-88
2022/09/18 02:04:19;;;;;;;6.20;5.07;;;10.50;99.90;;;;;;4954300;29;20440;-88
2022/09/18 02:07:19;;;;;;;7.03;5.00;;;10.40;99.90;;;;;;4954541;28;20463;-89
2022/09/18 02:09:47;;;;;;;5.47;4.78;;;10.40;99.90;;;;;;4954170;28;20466;-88
2022/09/18 02:12:19;;;;;;;6.57;5.50;;;10.40;99.90;;;;;;4938194;29;20413;-88
2022/09/18 02:14:54;;;;;;;7.15;6.25;;;10.30;99.90;;;;;;4954246;29;20839;-90
2022/09/18 02:17:50;;;;;;;8.13;5.88;;;10.40;99.90;;;;;;4954615;29;20443;-89
2022/09/18 02:20:27;;;;;;;6.60;5.73;;;10.40;99.90;;;;;;4954022;29;20454;-90
2022/09/18 02:22:59;;;;;;;8.02;5.65;;;10.40;99.90;;;;;;4954069;29;20487;-88
2022/09/18 02:25:43;;;;;;;7.57;5.88;;;10.30;99.90;;;;;;4969853;28;20434;-89
2022/09/18 02:28:15;;;;;;;7.80;5.55;;;10.40;99.90;;;;;;4954239;29;20400;-88
2022/09/18 02:30:44;;;;;;;7.68;4.90;;;10.40;99.90;;;;;;4953643;29;20408;-89
2022/09/18 02:33:34;;;;;;;8.55;6.93;;;10.40;99.90;;;;;;4953810;29;20400;-89
2022/09/18 02:36:05;;;;;;;8.25;5.72;;;10.40;99.90;;;;;;4953629;29;20918;-88
2022/09/18 02:39:06;;;;;;;8.23;5.70;;;10.40;99.90;;;;;;4969899;28;20413;-90
2022/09/18 02:41:52;;;;;;;7.07;6.33;;;10.30;99.90;;;;;;4953530;29;20430;-90
2022/09/18 02:44:43;;;;;;;5.93;4.82;;;10.40;99.90;;;;;;4953933;29;20416;-89
2022/09/18 02:47:42;;;;;;;7.43;5.40;;;10.30;99.90;;;;;;4953908;29;20404;-90
2022/09/18 02:50:30;;;;;;;6.73;4.90;;;10.30;99.90;;;;;;4953604;29;20488;-90
2022/09/18 02:53:11;;;;;;;7.78;4.85;;;10.40;99.90;;;;;;4953669;29;20409;-89
2022/09/18 02:55:45;;;;;;;6.13;5.30;;;10.40;99.90;;;;;;4969549;28;20786;-88
2022/09/18 02:58:39;;;;;;;5.70;4.70;;;10.40;99.90;;;;;;4954454;28;20480;-89
2022/09/18 03:01:10;;;;;;;7.15;4.97;;;10.40;99.90;;;;;;4969162;28;20408;-89
2022/09/18 03:03:38;;;;;;;4.88;4.32;;;10.40;99.90;;;;;;4953210;29;20412;-89
2022/09/18 03:06:09;;;;;;;7.38;4.95;;;10.40;99.90;;;;;;4953615;29;20451;-89
2022/09/18 03:08:37;;;;;;;4.72;3.90;;;10.40;99.90;;;;;;4969232;28;20397;-89
2022/09/18 03:11:05;;;;;;;7.33;5.00;;;10.40;99.90;;;;;;4953581;29;20491;-88
2022/09/18 03:13:43;;;;;;;5.90;5.15;;;10.40;99.90;;;;;;4969151;28;20903;-89
2022/09/18 03:16:11;;;;;;;6.43;5.67;;;10.50;99.90;;;;;;4953135;29;20896;-89
2022/09/18 03:18:38;;;;;;;5.05;4.07;;;10.50;99.90;;;;;;4953055;29;20422;-89
2022/09/18 03:21:06;;;;;;;6.32;4.20;;;10.50;99.90;;;;;;4953584;29;20411;-87
2022/09/18 03:23:34;;;;;;;7.90;4.93;;;10.30;99.90;;;;;;4969073;28;20400;-88
2022/09/18 03:26:13;;;;;;;7.82;6.07;;;10.40;99.90;;;;;;4954829;28;20424;-89
2022/09/18 03:28:41;;;;;;;7.00;4.70;;;10.50;99.90;;;;;;4952880;29;20820;-87
2022/09/18 03:31:10;;;;;;;7.65;5.70;;;10.50;99.90;;;;;;4968774;28;20411;-86
2022/09/18 03:33:38;;;;;;;7.18;5.35;;;10.40;99.90;;;;;;4952709;29;20400;-89
2022/09/18 03:36:07;;;;;;;7.20;5.45;;;10.40;99.90;;;;;;4954493;28;20451;-89
2022/09/18 03:38:36;;;;;;;7.22;5.07;;;10.40;99.90;;;;;;4952686;29;20467;-88
2022/09/18 03:41:06;;;;;;;7.22;5.65;;;10.30;99.90;;;;;;4953353;29;20959;-89
2022/09/18 03:43:34;;;;;;;8.23;5.78;;;10.30;99.90;;;;;;4952755;29;20791;-89
2022/09/18 03:46:04;;;;;;;7.28;5.72;;;10.30;99.90;;;;;;4952770;29;20476;-88
2022/09/18 03:48:32;;;;;;;7.03;5.63;;;10.30;99.90;;;;;;4968708;28;20400;-88
2022/09/18 03:51:00;;;;;;;9.18;5.90;;;10.40;99.90;;;;;;4952355;29;20423;-89
2022/09/18 03:53:27;;;;;;;8.10;5.55;;;10.40;99.90;;;;;;4937380;28;20419;-89
2022/09/18 03:56:08;;;;;;;7.47;6.15;;;10.40;99.90;;;;;;4971971;28;20406;-88
2022/09/18 03:58:54;;;;;;;9.43;6.93;;;10.40;99.90;;;;;;4972184;28;20889;-89
2022/09/18 04:01:35;;;;;;;8.52;6.57;;;10.40;99.90;;;;;;4968796;28;20918;-88
2022/09/18 04:04:38;;;;;;;10.38;8.05;;;10.40;99.90;;;;;;4913411;29;20487;-89
2022/09/18 04:07:41;;;;;;;8.32;7.18;;;10.40;99.90;;;;;;4902257;29;20493;-89
2022/09/18 04:10:35;;;;;;;9.17;7.30;;;10.30;99.90;;;;;;4949868;28;20790;-89
2022/09/18 04:13:04;;;;;;;9.88;7.72;;;10.40;99.90;;;;;;4953780;28;20408;-89
2022/09/18 04:15:34;;;;;;;8.70;6.63;;;10.30;99.90;;;;;;4956389;29;20455;-88
2022/09/18 04:18:02;;;;;;;9.75;7.82;;;10.20;99.90;;;;;;4956249;29;20411;-88
2022/09/18 04:20:30;;;;;;;8.85;7.60;;;10.20;99.90;;;;;;4956214;29;20965;-88
2022/09/18 04:22:59;;;;;;;10.23;7.70;;;10.20;99.90;;;;;;4956143;29;20941;-88
2022/09/18 04:25:26;;;;;;;10.55;8.55;;;10.20;99.90;;;;;;4969097;28;20404;-87
2022/09/18 04:27:55;;;;;;;11.73;8.60;;;10.20;99.90;;;;;;4955949;29;20459;-88
2022/09/18 04:30:23;;;;;;;10.75;8.15;;;10.30;99.90;;;;;;4956454;29;20455;-88
2022/09/18 04:32:51;;;;;;;9.05;7.20;;;10.20;99.90;;;;;;4956056;29;20411;-88
2022/09/18 04:35:19;;;;;;;9.27;7.63;;;10.30;99.90;;;;;;4956037;29;20403;-91
2022/09/18 04:37:48;;;;;;;8.85;6.95;;;10.20;99.90;;;;;;4956428;28;20404;-89
2022/09/18 04:40:16;;;;;;;12.52;8.20;;;10.20;99.90;;;;;;4956116;28;20887;-88
2022/09/18 04:42:45;;;;;;;11.53;8.93;;;10.20;99.90;;;;;;4955752;29;20408;-90
2022/09/18 04:45:13;;;;;;;10.63;8.05;;;10.20;99.90;;;;;;4939980;29;20404;-88
2022/09/18 04:47:42;;;;;;;11.40;8.30;;;10.30;99.90;;;;;;4955825;29;20412;-88
2022/09/18 04:50:10;;;;;;;12.73;9.80;;;10.20;99.90;;;;;;4957004;28;20864;-88
2022/09/18 04:52:57;;;;;;;10.93;8.32;;;10.20;99.90;;;;;;4962486;28;20412;-89
2022/09/18 04:55:26;;;;;;;10.07;7.50;;;10.20;99.90;;;;;;4975182;28;20406;-89
2022/09/18 04:57:54;;;;;;;11.27;7.10;;;10.20;99.90;;;;;;4970980;28;20834;-89
2022/09/18 05:00:22;;;;;;;8.87;6.70;;;10.10;99.90;;;;;;4955424;29;20904;-88
2022/09/18 05:02:50;;;;;;;11.60;7.82;;;10.10;99.90;;;;;;4958755;28;20409;-89
2022/09/18 05:05:21;;;;;;;9.23;6.65;;;10.20;99.90;;;;;;4970881;28;20420;-88
2022/09/18 05:07:49;;;;;;;12.27;7.25;;;10.20;99.90;;;;;;4955218;29;20412;-89
2022/09/18 05:10:18;;;;;;;11.93;8.18;;;10.20;99.90;;;;;;4965881;28;20464;-88
2022/09/18 05:12:46;;;;;;;9.47;6.67;;;10.20;99.90;;;;;;4956524;28;20412;-88
2022/09/18 05:15:15;;;;;;;8.00;6.03;;;10.10;99.90;;;;;;4955550;28;20410;-88
2022/09/18 05:17:46;;;;;;;9.23;5.88;;;10.10;99.90;;;;;;4965783;28;20466;-90
2022/09/18 05:20:15;;;;;;;8.73;5.82;;;10.10;99.90;;;;;;4974641;28;20889;-87
2022/09/18 05:22:46;;;;;;;7.93;5.80;;;10.10;99.90;;;;;;4974377;28;20932;-89
2022/09/18 05:25:19;;;;;;;7.82;5.97;;;10.10;99.90;;;;;;4972970;28;20422;-90
2022/09/18 05:27:58;;;;;;;7.93;6.05;;;10.20;99.90;;;;;;4974294;28;20403;-88
2022/09/18 05:30:31;;;;;;;8.67;6.43;;;10.20;99.90;;;;;;4974219;28;20402;-89
2022/09/18 05:33:03;;;;;;;9.98;6.50;;;10.20;99.90;;;;;;4955622;28;20415;-88
2022/09/18 05:35:33;;;;;;;10.82;7.32;;;10.20;99.90;;;;;;4939067;29;20914;-89
2022/09/18 05:38:01;;;;;;;11.48;7.68;;;10.20;99.90;;;;;;4954905;29;20403;-89
2022/09/18 05:40:35;;;;;;;10.63;7.70;;;10.20;99.90;;;;;;4954743;29;20392;-89
2022/09/18 05:43:04;;;;;;;11.27;6.80;;;10.20;99.90;;;;;;4955065;29;20401;-87
2022/09/18 05:45:34;;;;;;;10.68;7.10;;;10.30;99.90;;;;;;4954539;29;20506;-87
2022/09/18 05:48:07;;;;;;;10.65;6.90;;;10.10;99.90;;;;;;4954792;29;20403;-87
2022/09/18 05:50:36;;;;;;;9.35;7.18;;;10.10;99.90;;;;;;4954680;29;20409;-89
2022/09/18 05:53:13;;;;;;;11.77;7.23;;;10.10;99.90;;;;;;4954493;29;20436;-88
2022/09/18 05:55:51;;;;;;;9.77;6.82;;;10.10;99.90;;;;;;4954399;29;20416;-89
2022/09/18 05:58:20;;;;;;;9.82;6.68;;;10.10;99.90;;;;;;4954481;29;20408;-88
2022/09/18 06:00:51;;;;;;;10.48;7.03;;;10.20;99.90;;;;;;4954405;29;20408;-88
2022/09/18 06:03:26;;;;;;;8.35;6.40;;;10.20;99.90;;;;;;4954302;29;20414;-90
2022/09/18 06:05:57;;;;;;;8.07;5.97;;;10.20;99.90;;;;;;4954775;29;20411;-89
2022/09/18 06:08:25;;;;;;;8.95;5.80;;;10.20;99.90;;;;;;4960823;28;20803;-89
2022/09/18 06:10:53;;;;;;;8.23;5.65;;;10.20;99.90;;;;;;4938634;29;20475;-89
2022/09/18 06:13:21;;;;;;;9.13;5.82;;;10.20;99.90;;;;;;4955263;28;20433;-88
2022/09/18 06:15:51;;;;;;;7.93;5.95;;;10.20;99.90;;;;;;4954074;29;20404;-88
2022/09/18 06:18:39;;;;;;;9.93;6.40;;;10.30;99.90;;;;;;4954938;29;20931;-89
2022/09/18 06:21:07;;;;;;;9.45;5.80;;;10.30;99.90;;;;;;4940692;29;20412;-89
2022/09/18 06:23:35;;;;;;;10.23;6.70;;;10.20;99.90;;;;;;4961807;28;20899;-87
2022/09/18 06:26:10;;;;;;;8.63;6.15;;;10.20;99.90;;;;;;4954241;29;20424;-89
2022/09/18 06:28:42;;;;;;;8.40;5.50;;;10.30;99.90;;;;;;4953909;29;20776;-89
2022/09/18 06:31:10;;;;;;;9.85;6.10;;;10.30;99.90;;;;;;4953980;29;20438;-89
2022/09/18 06:33:58;;;;;;;10.30;7.00;;;10.30;99.90;;;;;;4955414;29;20426;-90
2022/09/18 06:36:25;;;;;;;9.10;6.47;;;10.20;99.90;;;;;;4953331;28;20403;-89
2022/09/18 06:39:11;;;;;;;9.07;6.50;;;10.30;99.90;;;;;;4954061;29;20403;-90
2022/09/18 06:41:39;;;;;;;13.67;8.30;;;10.40;99.90;;;;;;4957390;28;20452;-88
2022/09/18 06:44:16;;;;;;;9.43;6.77;;;10.30;99.90;;;;;;4945856;29;20396;-88
2022/09/18 06:46:53;;;;;;;10.77;7.95;;;10.30;99.90;;;;;;4957988;28;20402;-89
2022/09/18 06:49:34;;;;;;;11.00;7.78;;;10.30;99.90;;;;;;4971515;28;20409;-89
2022/09/18 06:52:03;;;;;;;12.05;7.75;;;10.30;99.90;;;;;;4972776;28;20420;-90
2022/09/18 06:54:32;;;;;;;11.23;7.63;;;10.30;99.90;;;;;;4970552;28;20410;-88
2022/09/18 06:57:01;;;;;;;11.85;7.85;;;10.30;99.90;;;;;;4955175;28;20491;-88
2022/09/18 06:59:30;;;;;;;12.90;8.15;;;10.40;99.90;;;;;;4969659;28;20404;-89
2022/09/18 07:01:59;;;;;;;11.30;8.40;;;10.40;99.90;;;;;;4960733;28;20404;-90
2022/09/18 07:04:43;;;;;;;11.57;8.57;;;10.40;99.90;;;;;;4953480;29;20487;-89
2022/09/18 07:07:11;;;;;;;12.68;8.80;;;10.40;99.90;;;;;;4953644;28;20502;-89
2022/09/18 07:09:38;;;;;;;11.50;8.00;;;10.40;99.90;;;;;;4953259;28;20491;-90
2022/09/18 07:12:14;;;;;;;11.35;8.30;;;10.40;99.90;;;;;;4969089;28;20432;-89
2022/09/18 07:14:46;;;;;;;12.63;7.82;;;10.50;99.90;;;;;;4968525;28;20400;-89
2022/09/18 07:17:15;;;;;;;11.32;8.02;;;10.40;99.90;;;;;;4969464;28;20533;-89
2022/09/18 07:19:50;;;;;;;11.80;7.90;;;10.30;99.90;;;;;;4953522;29;20441;-90
2022/09/18 07:22:20;;;;;;;11.10;7.33;;;10.40;99.90;;;;;;4969184;28;20404;-88
2022/09/18 07:24:48;;;;;;;9.23;6.95;;;10.30;99.90;;;;;;4955644;28;20415;-87
2022/09/18 07:27:16;;;;;;;10.75;7.15;;;10.30;99.90;;;;;;4966643;28;20407;-89
2022/09/18 07:29:44;;;;;;;13.57;7.57;;;10.30;99.90;;;;;;4962763;28;20416;-89
2022/09/18 07:32:14;;;;;;;11.88;6.75;;;10.40;99.90;;;;;;4966079;28;20414;-87
2022/09/18 07:34:44;;;;;;;12.23;7.28;;;10.40;99.90;;;;;;4963571;28;20400;-90
2022/09/18 07:37:18;;;;;;;12.45;7.63;;;10.40;99.90;;;;;;4970311;28;20406;-89
2022/09/18 07:39:54;;;;;;;10.65;7.65;;;10.50;99.90;;;;;;4971599;28;20425;-90
2022/09/18 07:42:40;;;;;;;10.75;7.13;;;10.50;99.90;;;;;;4968035;28;20411;-91
2022/09/18 07:45:09;;;;;;;10.40;7.28;;;10.50;99.90;;;;;;4967597;28;20409;-90
2022/09/18 07:47:36;;;;;;;10.05;7.10;;;10.50;99.90;;;;;;4955678;28;20400;-91
2022/09/18 07:50:06;;;;;;;9.43;6.65;;;10.50;99.90;;;;;;4973318;28;20916;-89
2022/09/18 07:52:33;;;;;;;7.78;5.95;;;10.60;99.90;;;;;;4945164;29;20519;-90
2022/09/18 07:55:01;;;;;;;8.00;6.05;;;10.60;99.90;;;;;;4960589;28;20439;-88
2022/09/18 07:57:31;;;;;;;11.88;7.70;;;10.60;99.90;;;;;;4963464;28;20411;-89
2022/09/18 08:00:30;;;;;;;14.52;10.90;;;10.60;99.90;;;;;;4971647;28;20417;-88
2022/09/18 08:03:03;;;;;;;9.70;6.55;;;10.60;99.90;;;;;;4971167;28;20407;-87
2022/09/18 08:05:53;;;;;;;10.85;6.65;;;10.70;99.90;;;;;;4965493;28;20423;-89
2022/09/18 08:08:21;;;;;;;12.00;8.10;;;10.70;99.90;;;;;;4971790;28;20497;-90
2022/09/18 08:11:03;;;;;;;10.83;7.27;;;10.70;99.90;;;;;;4964611;28;20954;-88
2022/09/18 08:13:48;;;;;;;10.85;7.30;;;10.70;99.90;;;;;;4971971;28;20901;-88
2022/09/18 08:16:47;;;;;;;10.75;6.97;;;10.70;99.90;;;;;;4959478;28;20453;-90
2022/09/18 08:19:34;;;;;;;10.30;6.22;;;10.80;99.90;;;;;;4973736;28;20389;-87
2022/09/18 08:22:10;;;;;;;9.82;6.85;;;10.80;99.90;;;;;;4966549;28;20408;-90
2022/09/18 08:24:43;;;;;;;8.35;6.13;;;10.80;99.90;;;;;;4973274;28;20403;-89
2022/09/18 08:27:11;;;;;;;9.20;6.22;;;10.80;99.90;;;;;;4971765;28;20403;-89
2022/09/18 08:29:40;;;;;;;7.60;5.35;;;10.80;99.90;;;;;;4971658;28;20478;-91
2022/09/18 08:32:09;;;;;;;7.50;5.68;;;10.80;99.90;;;;;;4971837;28;20410;-90
2022/09/18 08:34:37;;;;;;;8.05;5.80;;;10.80;99.90;;;;;;4971516;28;20421;-89
2022/09/18 08:37:05;;;;;;;7.40;5.60;;;10.80;99.90;;;;;;4971756;28;20406;-89
2022/09/18 08:39:51;;;;;;;8.27;5.85;;;10.80;99.90;;;;;;4972717;28;20397;-89
2022/09/18 08:43:04;;;;;;;6.35;4.60;;;10.80;99.90;;;;;;4957315;28;20495;-90
2022/09/18 08:45:49;;;;;;;7.97;4.03;;;10.90;99.90;;;;;;4971810;28;20701;-90
2022/09/18 08:48:53;;;;;;;4.95;3.42;;;10.90;99.90;;;;;;4971447;28;20423;-88
2022/09/18 08:51:33;;;;;;;6.57;3.60;;;10.90;99.90;;;;;;4936092;28;20399;-88
2022/09/18 08:54:15;;;;;;;5.50;4.53;;;10.90;99.90;;;;;;4971465;28;20759;-87
2022/09/18 08:57:18;;;;;;;5.60;3.43;;;10.90;99.90;;;;;;4956655;28;20398;-88
2022/09/18 09:00:11;;;;;;;7.88;3.75;;;10.90;99.90;;;;;;4973692;28;20415;-88
2022/09/18 09:02:51;;;;;;;5.78;4.07;;;10.90;99.90;;;;;;4974565;28;20929;-87
2022/09/18 09:05:23;;;;;;;5.22;4.30;;;11.00;99.90;;;;;;4974541;28;20410;-89
2022/09/18 09:08:00;;;;;;;5.75;4.00;;;11.00;99.90;;;;;;4971707;28;20392;-87
2022/09/18 09:10:39;;;;;;;5.43;3.97;;;11.00;99.90;;;;;;4963152;28;20472;-88
2022/09/18 09:13:10;;;;;;;5.80;5.03;;;11.10;99.90;;;;;;4958720;28;20479;-89
2022/09/18 09:16:01;;;;;;;6.85;4.50;;;11.00;99.90;;;;;;4955168;29;20448;-89
2022/09/18 09:18:48;;;;;;;5.20;4.35;;;11.00;99.90;;;;;;4959528;28;20502;-88
2022/09/18 09:21:34;;;;;;;4.65;3.70;;;11.10;99.90;;;;;;4971715;28;20467;-87
2022/09/18 09:24:28;;;;;;;3.67;2.90;;;11.10;99.90;;;;;;4955239;29;20408;-88
2022/09/18 09:27:25;;;;;;;4.13;3.10;;;11.20;99.90;;;;;;4977009;28;20747;-89
2022/09/18 09:30:19;;;;;;;5.95;3.90;;;11.20;99.90;;;;;;4972519;28;20410;-90
2022/09/18 09:33:26;;;;;;;5.97;3.83;;;11.30;99.90;;;;;;4965329;28;20416;-90
2022/09/18 09:36:28;;;;;;;4.97;3.58;;;11.20;99.90;;;;;;4956623;28;20411;-92
2022/09/18 09:39:29;;;;;;;5.15;3.10;;;11.30;99.90;;;;;;4972799;28;20499;-88
2022/09/18 09:42:21;;;;;;;6.75;3.15;;;11.30;99.90;;;;;;4958086;28;20393;-90
2022/09/18 09:45:12;;;;;;;3.78;2.90;;;11.30;99.90;;;;;;4956829;28;20416;-91
2022/09/18 09:47:43;;;;;;;3.60;2.70;;;11.20;99.90;;;;;;4962830;29;20416;-87
2022/09/18 09:50:38;;;;;;;3.70;2.72;;;11.20;99.90;;;;;;4957003;28;20412;-88
2022/09/18 09:53:10;;;;;;;3.63;2.75;;;11.20;99.90;;;;;;4958106;28;20920;-92
2022/09/18 09:56:06;;;;;;;3.53;2.50;;;11.30;99.90;;;;;;4968170;28;20559;-92
2022/09/18 09:58:40;;;;;;;3.35;2.30;;;11.30;99.90;;;;;;4945943;28;20859;-90
2022/09/18 10:01:34;;;;;;;4.70;2.30;;;11.30;99.90;;;;;;4975257;28;20379;-91
2022/09/18 10:04:33;;;;;;;3.30;2.00;;;11.30;99.90;;;;;;4953405;28;20411;-90
2022/09/18 10:07:14;;;;;;;2.58;1.90;;;11.40;99.90;;;;;;4974031;28;20426;-92
2022/09/18 10:10:26;;;;;;;3.17;2.10;;;11.40;99.90;;;;;;4973789;28;20415;-91
2022/09/18 10:13:16;;;;;;;3.95;1.70;;;11.40;99.90;;;;;;4937271;29;20495;-90
2022/09/18 10:15:46;;;;;;;2.00;1.70;;;11.50;99.90;;;;;;4937170;29;20396;-91
2022/09/18 10:18:28;;;;;;;2.38;1.83;;;11.50;99.90;;;;;;4962904;28;20395;-90
2022/09/18 10:21:04;;;;;;;3.05;1.70;;;11.40;99.90;;;;;;4973927;28;20433;-90
2022/09/18 10:23:41;;;;;;;2.88;1.60;;;11.40;99.90;;;;;;4973650;28;20940;-90
2022/09/18 10:26:26;;;;;;;2.90;1.70;;;11.30;99.90;;;;;;4972999;28;20422;-90
2022/09/18 10:28:54;;;;;;;5.38;1.60;;;11.40;99.90;;;;;;4985624;28;20487;-91
2022/09/18 10:31:22;;;;;;;2.72;1.80;;;11.40;99.90;;;;;;4964246;28;20425;-90
2022/09/18 10:33:52;;;;;;;3.00;1.55;;;11.50;99.90;;;;;;4969981;28;20413;-90
2022/09/18 10:36:37;;;;;;;4.77;1.60;;;11.50;99.90;;;;;;4963770;28;20409;-90
2022/09/18 10:39:35;;;;;;;2.05;1.80;;;11.60;99.90;;;;;;4959932;28;20407;-89
2022/09/18 10:42:15;;;;;;;2.90;2.08;;;11.60;99.90;;;;;;4954734;29;20484;-92
2022/09/18 10:44:59;;;;;;;28.33;19.85;;;11.70;99.90;;;;;;4954785;28;20449;-93
2022/09/18 10:47:36;;;;;;;2.58;1.35;;;11.80;99.90;;;;;;4965335;28;20419;-91
2022/09/18 10:50:17;;;;;;;2.47;1.52;;;11.70;99.90;;;;;;4958726;28;20384;-92
2022/09/18 10:52:48;;;;;;;2.50;1.40;;;11.80;99.90;;;;;;4954546;28;20412;-90
2022/09/18 10:55:26;;;;;;;1.65;1.30;;;11.80;99.90;;;;;;4954683;29;20408;-94
2022/09/18 10:58:13;;;;;;;3.60;1.30;;;11.80;99.90;;;;;;4954047;29;20412;-91
2022/09/18 11:01:00;;;;;;;2.53;1.20;;;11.80;99.90;;;;;;4959777;28;20404;-91
2022/09/18 11:03:30;;;;;;;3.10;1.23;;;11.90;99.90;;;;;;4969635;28;20392;-91
2022/09/18 11:06:01;;;;;;;2.40;1.40;;;11.90;99.90;;;;;;4970694;28;20400;-92
2022/09/18 11:08:48;;;;;;;1.50;1.20;;;11.90;99.90;;;;;;4969689;28;20400;-92
2022/09/18 11:11:36;;;;;;;3.38;1.55;;;11.80;99.90;;;;;;4955855;28;20410;-89
2022/09/18 11:14:25;;;;;;;1.90;1.30;;;11.80;99.90;;;;;;4953273;28;20926;-89
2022/09/18 11:17:03;;;;;;;2.70;1.20;;;11.80;99.90;;;;;;4966295;28;20427;-90
2022/09/18 11:19:39;;;;;;;1.42;1.20;;;11.80;99.90;;;;;;4938467;29;20411;-90
2022/09/18 11:22:41;;;;;;;1.58;1.20;;;11.80;99.90;;;;;;4968760;28;20418;-91
2022/09/18 11:25:29;;;;;;;2.22;1.40;;;11.80;99.90;;;;;;4963826;28;20783;-91
2022/09/18 11:28:27;;;;;;;5.30;3.58;;;11.90;99.90;;;;;;4970145;28;20408;-91
2022/09/18 11:31:09;;;;;;;2.23;1.40;;;11.90;99.90;;;;;;4981224;28;20429;-90
2022/09/18 11:33:52;;;;;;;3.05;1.30;;;11.90;99.90;;;;;;4965665;28;20443;-89
2022/09/18 11:36:31;;;;;;;2.60;1.38;;;12.00;99.90;;;;;;4941084;28;20412;-89
2022/09/18 11:39:01;;;;;;;2.10;1.10;;;12.00;99.90;;;;;;4964417;28;20939;-88
2022/09/18 11:41:35;;;;;;;2.10;1.20;;;12.00;99.90;;;;;;4971068;28;20461;-87
2022/09/18 11:44:13;;;;;;;2.80;1.30;;;12.00;99.90;;;;;;4970838;28;20398;-88
2022/09/18 11:47:05;;;;;;;2.33;1.30;;;12.00;99.90;;;;;;4970043;28;20406;-88
2022/09/18 11:49:44;;;;;;;2.70;1.10;;;12.00;99.90;;;;;;4949882;28;20438;-87
2022/09/18 11:52:26;;;;;;;2.92;1.17;;;12.00;99.90;;;;;;4971167;28;20418;-88
2022/09/18 11:55:12;;;;;;;2.20;1.10;;;12.00;99.90;;;;;;4971164;28;20410;-87
2022/09/18 11:57:53;;;;;;;2.42;1.30;;;12.00;99.90;;;;;;4971496;28;20426;-88
2022/09/18 12:00:22;;;;;;;1.80;1.25;;;12.00;99.90;;;;;;4969244;28;20463;-88
2022/09/18 12:03:10;;;;;;;1.50;1.27;;;12.10;99.90;;;;;;4968720;28;20393;-88
2022/09/18 12:05:52;;;;;;;2.67;1.10;;;12.10;99.90;;;;;;4953009;28;20488;-88
2022/09/18 12:08:34;;;;;;;1.60;1.20;;;12.10;99.90;;;;;;4968763;28;20403;-87
2022/09/18 12:11:13;;;;;;;1.35;1.00;;;12.10;99.90;;;;;;4968474;28;20400;-88
2022/09/18 12:13:41;;;;;;;1.25;1.13;;;12.10;99.90;;;;;;4952531;28;20416;-88
2022/09/18 12:16:30;;;;;;;3.15;1.30;;;12.10;99.90;;;;;;4952394;29;20793;-87
2022/09/18 12:19:17;;;;;;;2.45;1.20;;;12.40;99.90;;;;;;4952582;28;20411;-87
2022/09/18 12:22:06;;;;;;;1.95;1.20;;;12.70;99.90;;;;;;4952383;29;20411;-86
2022/09/18 12:24:34;;;;;;;1.63;1.10;;;13.10;99.90;;;;;;4952156;29;20416;-88
2022/09/18 12:27:29;;;;;;;2.00;1.27;;;13.30;99.90;;;;;;4952377;29;20400;-87
2022/09/18 12:30:04;;;;;;;2.25;1.13;;;13.60;99.90;;;;;;4968393;28;20498;-88
2022/09/18 12:32:42;;;;;;;1.17;1.08;;;13.60;99.90;;;;;;4957409;28;20402;-88
2022/09/18 12:35:27;;;;;;;1.70;1.20;;;13.60;99.90;;;;;;4955172;28;20412;-87
2022/09/18 12:38:01;;;;;;;1.70;1.15;;;13.50;99.90;;;;;;4972117;28;20400;-88
2022/09/18 12:40:35;;;;;;;1.70;1.27;;;13.50;99.90;;;;;;4972127;28;20392;-86
2022/09/18 12:43:22;;;;;;;3.50;1.90;;;13.40;99.90;;;;;;4975741;28;20402;-88
2022/09/18 12:46:36;;;;;;;1.70;1.10;;;13.50;99.90;;;;;;4975614;28;20430;-90
2022/09/18 12:49:41;;;;;;;3.20;1.20;;;13.50;99.90;;;;;;4971717;28;20940;-89
2022/09/18 12:52:38;;;;;;;1.60;1.10;;;13.50;99.90;;;;;;4965758;28;20408;-86
2022/09/18 12:55:36;;;;;;;1.63;1.23;;;13.40;99.90;;;;;;4954932;29;20514;-89
2022/09/18 12:58:40;;;;;;;1.20;1.00;;;13.40;99.90;;;;;;4957296;28;20396;-88
2022/09/18 13:01:37;;;;;;;3.13;1.40;;;13.30;99.90;;;;;;4971560;28;20411;-87
2022/09/18 13:04:30;;;;;;;2.75;1.42;;;13.30;99.90;;;;;;4956679;28;20407;-88
2022/09/18 13:07:07;;;;;;;2.67;1.40;;;13.20;99.90;;;;;;4943092;29;20400;-89
2022/09/18 13:10:22;;;;;;;1.60;1.30;;;13.20;99.90;;;;;;4961461;28;20809;-88
2022/09/18 13:13:13;;;;;;;1.88;1.35;;;13.10;99.90;;;;;;4972963;28;20473;-89
2022/09/18 13:15:56;;;;;;;2.22;1.20;;;13.00;99.90;;;;;;4951247;28;20412;-89
2022/09/18 13:18:27;;;;;;;2.72;1.33;;;13.00;99.90;;;;;;4955505;29;20495;-89
2022/09/18 13:20:58;;;;;;;1.85;1.30;;;13.00;99.90;;;;;;4956769;28;20431;-86
2022/09/18 13:23:36;;;;;;;2.80;1.40;;;13.00;99.90;;;;;;4960408;28;20405;-88
2022/09/18 13:26:06;;;;;;;3.15;1.55;;;12.90;99.90;;;;;;4974089;28;20809;-88
2022/09/18 13:28:34;;;;;;;2.40;1.50;;;12.90;99.90;;;;;;4966574;28;20472;-87
2022/09/18 13:31:14;;;;;;;2.10;1.40;;;13.00;99.90;;;;;;4977867;28;20467;-88
2022/09/18 13:34:00;;;;;;;3.30;1.30;;;13.20;99.90;;;;;;4979973;28;20409;-87
2022/09/18 13:36:40;;;;;;;2.22;1.70;;;13.30;99.90;;;;;;4977794;28;20405;-86
2022/09/18 13:39:19;;;;;;;1.90;1.35;;;13.30;99.90;;;;;;4978710;28;20408;-88
2022/09/18 13:41:50;;;;;;;1.60;1.50;;;13.20;99.90;;;;;;4970511;28;20411;-88